sensor_id;sensor_type;location;lat;lon;timestamp;pressure;altitude;pressure_sealevel;temperature;humidity
84904;BME280;75168;52.096;5.214;2024-01-30T00:01:09;102544.84;;;21.07;39.64
84904;BME280;75168;52.096;5.214;2024-01-30T00:03:34;102553.69;;;21.07;39.74
84904;BME280;75168;52.096;5.214;2024-01-30T00:06:00;102548.38;;;21.07;39.55
84904;BME280;75168;52.096;5.214;2024-01-30T00:08:26;102547.50;;;21.07;39.85
84904;BME280;75168;52.096;5.214;2024-01-30T00:10:51;102542.19;;;21.07;39.67
84904;BME280;75168;52.096;5.214;2024-01-30T00:13:16;102543.06;;;21.07;39.84
84904;BME280;75168;52.096;5.214;2024-01-30T00:15:44;102553.69;;;21.07;39.88
84904;BME280;75168;52.096;5.214;2024-01-30T00:18:09;102543.94;;;21.06;39.82
84904;BME280;75168;52.096;5.214;2024-01-30T00:20:35;102547.50;;;21.07;39.74
84904;BME280;75168;52.096;5.214;2024-01-30T00:23:00;102553.69;;;21.07;39.74
84904;BME280;75168;52.096;5.214;2024-01-30T00:25:26;102542.19;;;21.07;39.54
84904;BME280;75168;52.096;5.214;2024-01-30T00:27:52;102544.84;;;21.07;39.80
84904;BME280;75168;52.096;5.214;2024-01-30T00:30:17;102541.28;;;21.06;39.87
84904;BME280;75168;52.096;5.214;2024-01-30T00:32:42;102544.84;;;21.07;39.57
84904;BME280;75168;52.096;5.214;2024-01-30T00:35:08;102549.25;;;21.06;39.54
84904;BME280;75168;52.096;5.214;2024-01-30T00:37:35;102542.16;;;21.08;39.74
84904;BME280;75168;52.096;5.214;2024-01-30T00:40:00;102542.16;;;21.08;39.58
84904;BME280;75168;52.096;5.214;2024-01-30T00:42:26;102535.09;;;21.07;39.57
84904;BME280;75168;52.096;5.214;2024-01-30T00:44:51;102532.44;;;21.07;39.51
84904;BME280;75168;52.096;5.214;2024-01-30T00:47:16;102534.19;;;21.08;39.63
84904;BME280;75168;52.096;5.214;2024-01-30T00:49:42;102534.19;;;21.08;39.82
84904;BME280;75168;52.096;5.214;2024-01-30T00:52:07;102536.84;;;21.08;39.82
84904;BME280;75168;52.096;5.214;2024-01-30T00:54:33;102535.97;;;21.09;39.60
84904;BME280;75168;52.096;5.214;2024-01-30T00:56:58;102529.78;;;21.09;39.76
84904;BME280;75168;52.096;5.214;2024-01-30T00:59:24;102534.19;;;21.08;39.73
84904;BME280;75168;52.096;5.214;2024-01-30T01:01:50;102535.97;;;21.09;39.57
84904;BME280;75168;52.096;5.214;2024-01-30T01:04:16;102531.53;;;21.10;39.75
84904;BME280;75168;52.096;5.214;2024-01-30T01:06:42;102535.09;;;21.09;39.95
84904;BME280;75168;52.096;5.214;2024-01-30T01:09:10;102531.53;;;21.08;39.83
84904;BME280;75168;52.096;5.214;2024-01-30T01:11:36;102530.66;;;21.09;39.79
84904;BME280;75168;52.096;5.214;2024-01-30T01:14:03;102527.13;;;21.09;39.68
84904;BME280;75168;52.096;5.214;2024-01-30T01:16:29;102528.88;;;21.08;39.95
84904;BME280;75168;52.096;5.214;2024-01-30T01:18:54;102523.59;;;21.08;39.77
84904;BME280;75168;52.096;5.214;2024-01-30T01:21:20;102519.19;;;21.09;39.94
84904;BME280;75168;52.096;5.214;2024-01-30T01:23:45;102516.53;;;21.07;39.66
84904;BME280;75168;52.096;5.214;2024-01-30T01:26:10;102520.94;;;21.08;39.86
84904;BME280;75168;52.096;5.214;2024-01-30T01:28:36;102513.88;;;21.09;39.73
84904;BME280;75168;52.096;5.214;2024-01-30T01:31:01;102513.88;;;21.07;39.81
84904;BME280;75168;52.096;5.214;2024-01-30T01:33:34;102505.91;;;21.09;39.57
84904;BME280;75168;52.096;5.214;2024-01-30T01:36:00;102503.25;;;21.09;39.87
84904;BME280;75168;52.096;5.214;2024-01-30T01:38:28;102497.97;;;21.09;39.70
84904;BME280;75168;52.096;5.214;2024-01-30T01:40:54;102497.06;;;21.08;39.79
84904;BME280;75168;52.096;5.214;2024-01-30T01:43:19;102495.31;;;21.09;39.68
84904;BME280;75168;52.096;5.214;2024-01-30T01:45:45;102497.06;;;21.08;39.46
84904;BME280;75168;52.096;5.214;2024-01-30T01:48:11;102489.09;;;21.08;39.84
84904;BME280;75168;52.096;5.214;2024-01-30T01:50:38;102493.53;;;21.09;39.74
84904;BME280;75168;52.096;5.214;2024-01-30T01:53:03;102490.00;;;21.09;39.53
84904;BME280;75168;52.096;5.214;2024-01-30T01:55:30;102496.19;;;21.09;39.66
84904;BME280;75168;52.096;5.214;2024-01-30T01:57:57;102487.34;;;21.09;39.37
84904;BME280;75168;52.096;5.214;2024-01-30T02:00:23;102488.22;;;21.09;39.50
84904;BME280;75168;52.096;5.214;2024-01-30T02:02:49;102485.56;;;21.09;39.82
84904;BME280;75168;52.096;5.214;2024-01-30T02:05:15;102485.56;;;21.11;39.79
84904;BME280;75168;52.096;5.214;2024-01-30T02:07:42;102493.53;;;21.09;39.87
84904;BME280;75168;52.096;5.214;2024-01-30T02:10:08;102480.25;;;21.09;39.50
84904;BME280;75168;52.096;5.214;2024-01-30T02:12:35;102485.56;;;21.09;39.67
84904;BME280;75168;52.096;5.214;2024-01-30T02:15:00;102482.91;;;21.09;39.45
84904;BME280;75168;52.096;5.214;2024-01-30T02:17:26;102482.91;;;21.09;39.65
84904;BME280;75168;52.096;5.214;2024-01-30T02:19:52;102490.00;;;21.10;39.47
84904;BME280;75168;52.096;5.214;2024-01-30T02:22:17;102487.34;;;21.10;39.55
84904;BME280;75168;52.096;5.214;2024-01-30T02:24:44;102489.09;;;21.10;39.57
84904;BME280;75168;52.096;5.214;2024-01-30T02:27:09;102486.44;;;21.10;39.42
84904;BME280;75168;52.096;5.214;2024-01-30T02:29:35;102481.13;;;21.10;39.53
84904;BME280;75168;52.096;5.214;2024-01-30T02:32:00;102480.25;;;21.09;39.83
84904;BME280;75168;52.096;5.214;2024-01-30T02:34:25;102480.25;;;21.09;39.63
84904;BME280;75168;52.096;5.214;2024-01-30T02:36:51;102480.25;;;21.09;39.49
84904;BME280;75168;52.096;5.214;2024-01-30T02:39:16;102478.47;;;21.10;39.75
84904;BME280;75168;52.096;5.214;2024-01-30T02:41:41;102474.06;;;21.10;39.67
84904;BME280;75168;52.096;5.214;2024-01-30T02:44:07;102473.16;;;21.10;39.70
84904;BME280;75168;52.096;5.214;2024-01-30T02:46:32;102470.53;;;21.10;39.46
84904;BME280;75168;52.096;5.214;2024-01-30T02:48:58;102468.78;;;21.10;39.68
84904;BME280;75168;52.096;5.214;2024-01-30T02:51:23;102465.22;;;21.10;39.72
84904;BME280;75168;52.096;5.214;2024-01-30T02:53:48;102471.44;;;21.09;39.47
84904;BME280;75168;52.096;5.214;2024-01-30T02:56:14;102463.47;;;21.10;39.72
84904;BME280;75168;52.096;5.214;2024-01-30T02:58:40;102463.47;;;21.10;39.59
84904;BME280;75168;52.096;5.214;2024-01-30T03:01:06;102465.22;;;21.10;39.43
84904;BME280;75168;52.096;5.214;2024-01-30T03:03:32;102459.03;;;21.09;39.66
84904;BME280;75168;52.096;5.214;2024-01-30T03:05:57;102461.69;;;21.11;39.87
84904;BME280;75168;52.096;5.214;2024-01-30T03:08:22;102460.81;;;21.10;39.71
84904;BME280;75168;52.096;5.214;2024-01-30T03:10:48;102461.69;;;21.11;39.26
84904;BME280;75168;52.096;5.214;2024-01-30T03:13:14;102452.84;;;21.10;39.43
84904;BME280;75168;52.096;5.214;2024-01-30T03:15:39;102454.59;;;21.10;39.63
84904;BME280;75168;52.096;5.214;2024-01-30T03:18:05;102459.03;;;21.11;39.36
84904;BME280;75168;52.096;5.214;2024-01-30T03:20:30;102451.94;;;21.10;39.77
84904;BME280;75168;52.096;5.214;2024-01-30T03:22:56;102455.50;;;21.10;39.48
84904;BME280;75168;52.096;5.214;2024-01-30T03:25:22;102450.19;;;21.10;39.81
84904;BME280;75168;52.096;5.214;2024-01-30T03:27:47;102446.63;;;21.11;39.66
84904;BME280;75168;52.096;5.214;2024-01-30T03:30:13;102440.47;;;21.11;39.42
84904;BME280;75168;52.096;5.214;2024-01-30T03:32:38;102431.63;;;21.10;39.55
84904;BME280;75168;52.096;5.214;2024-01-30T03:35:03;102434.28;;;21.10;39.73
84904;BME280;75168;52.096;5.214;2024-01-30T03:37:29;102434.28;;;21.10;39.45
84904;BME280;75168;52.096;5.214;2024-01-30T03:39:55;102426.31;;;21.10;39.73
84904;BME280;75168;52.096;5.214;2024-01-30T03:42:20;102429.84;;;21.11;39.51
84904;BME280;75168;52.096;5.214;2024-01-30T03:44:46;102418.34;;;21.10;39.40
84904;BME280;75168;52.096;5.214;2024-01-30T03:47:11;102426.31;;;21.10;39.59
84904;BME280;75168;52.096;5.214;2024-01-30T03:49:37;102416.56;;;21.11;39.52
84904;BME280;75168;52.096;5.214;2024-01-30T03:52:02;102413.94;;;21.11;39.48
84904;BME280;75168;52.096;5.214;2024-01-30T03:54:27;102409.50;;;21.10;39.32
84904;BME280;75168;52.096;5.214;2024-01-30T03:56:53;102416.56;;;21.11;39.47
84904;BME280;75168;52.096;5.214;2024-01-30T03:59:18;102421.00;;;21.10;39.67
84904;BME280;75168;52.096;5.214;2024-01-30T04:01:52;102421.00;;;21.10;39.60
84904;BME280;75168;52.096;5.214;2024-01-30T04:04:20;102414.78;;;21.11;39.52
84904;BME280;75168;52.096;5.214;2024-01-30T04:06:46;102418.34;;;21.10;39.39
84904;BME280;75168;52.096;5.214;2024-01-30T04:09:12;102427.19;;;21.11;39.40
84904;BME280;75168;52.096;5.214;2024-01-30T04:11:39;102424.53;;;21.09;39.43
84904;BME280;75168;52.096;5.214;2024-01-30T04:14:04;102427.19;;;21.11;39.63
84904;BME280;75168;52.096;5.214;2024-01-30T04:16:29;102426.31;;;21.10;39.56
84904;BME280;75168;52.096;5.214;2024-01-30T04:18:56;102433.38;;;21.11;39.31
84904;BME280;75168;52.096;5.214;2024-01-30T04:21:21;102433.38;;;21.10;39.35
84904;BME280;75168;52.096;5.214;2024-01-30T04:23:47;102428.06;;;21.11;39.59
84904;BME280;75168;52.096;5.214;2024-01-30T04:26:13;102427.19;;;21.11;39.39
84904;BME280;75168;52.096;5.214;2024-01-30T04:28:41;102422.75;;;21.11;39.71
84904;BME280;75168;52.096;5.214;2024-01-30T04:31:06;102428.94;;;21.12;39.67
84904;BME280;75168;52.096;5.214;2024-01-30T04:33:32;102420.97;;;21.12;39.21
84904;BME280;75168;52.096;5.214;2024-01-30T04:35:57;102412.16;;;21.11;39.48
84904;BME280;75168;52.096;5.214;2024-01-30T04:38:22;102416.56;;;21.11;39.27
84904;BME280;75168;52.096;5.214;2024-01-30T04:40:48;102413.94;;;21.11;39.39
84904;BME280;75168;52.096;5.214;2024-01-30T04:43:13;102413.94;;;21.11;39.35
84904;BME280;75168;52.096;5.214;2024-01-30T04:45:39;102413.06;;;21.10;39.35
84904;BME280;75168;52.096;5.214;2024-01-30T04:48:30;102413.06;;;21.09;39.45
84904;BME280;75168;52.096;5.214;2024-01-30T04:50:55;102413.94;;;21.09;39.55
84904;BME280;75168;52.096;5.214;2024-01-30T04:53:21;102410.41;;;21.10;39.38
84904;BME280;75168;52.096;5.214;2024-01-30T04:55:47;102400.66;;;21.11;39.49
84904;BME280;75168;52.096;5.214;2024-01-30T04:58:12;102402.44;;;21.10;39.46
84904;BME280;75168;52.096;5.214;2024-01-30T05:00:37;102396.22;;;21.10;39.66
84904;BME280;75168;52.096;5.214;2024-01-30T05:03:03;102394.47;;;21.10;39.72
84904;BME280;75168;52.096;5.214;2024-01-30T05:05:28;102396.22;;;21.11;39.69
84904;BME280;75168;52.096;5.214;2024-01-30T05:07:53;102396.22;;;21.11;39.29
84904;BME280;75168;52.096;5.214;2024-01-30T05:10:19;102395.34;;;21.11;39.68
84904;BME280;75168;52.096;5.214;2024-01-30T05:12:44;102393.56;;;21.10;39.41
84904;BME280;75168;52.096;5.214;2024-01-30T05:15:10;102384.75;;;21.11;39.46
84904;BME280;75168;52.096;5.214;2024-01-30T05:17:35;102385.63;;;21.11;39.41
84904;BME280;75168;52.096;5.214;2024-01-30T05:20:00;102387.41;;;21.11;39.35
84904;BME280;75168;52.096;5.214;2024-01-30T05:22:26;102382.97;;;21.11;39.34
84904;BME280;75168;52.096;5.214;2024-01-30T05:24:51;102390.03;;;21.11;39.63
84904;BME280;75168;52.096;5.214;2024-01-30T05:27:17;102388.25;;;21.11;39.54
84904;BME280;75168;52.096;5.214;2024-01-30T05:29:42;102390.03;;;21.11;39.53
84904;BME280;75168;52.096;5.214;2024-01-30T05:32:07;102394.47;;;21.10;39.53
84904;BME280;75168;52.096;5.214;2024-01-30T05:34:33;102400.66;;;21.11;39.26
84904;BME280;75168;52.096;5.214;2024-01-30T05:36:58;102398.00;;;21.11;39.62
84904;BME280;75168;52.096;5.214;2024-01-30T05:39:23;102397.13;;;21.10;39.35
84904;BME280;75168;52.096;5.214;2024-01-30T05:41:49;102403.31;;;21.11;39.43
84904;BME280;75168;52.096;5.214;2024-01-30T05:44:14;102403.31;;;21.11;39.41
84904;BME280;75168;52.096;5.214;2024-01-30T05:46:39;102398.88;;;21.11;39.26
84904;BME280;75168;52.096;5.214;2024-01-30T05:49:05;102397.13;;;21.10;39.61
84904;BME280;75168;52.096;5.214;2024-01-30T05:51:31;102393.56;;;21.11;39.19
84904;BME280;75168;52.096;5.214;2024-01-30T05:53:56;102396.22;;;21.11;39.52
84904;BME280;75168;52.096;5.214;2024-01-30T05:56:21;102398.00;;;21.11;39.54
84904;BME280;75168;52.096;5.214;2024-01-30T05:58:47;102399.75;;;21.12;39.40
84904;BME280;75168;52.096;5.214;2024-01-30T06:01:12;102392.69;;;21.11;39.19
84904;BME280;75168;52.096;5.214;2024-01-30T06:03:38;102410.38;;;21.12;39.62
84904;BME280;75168;52.096;5.214;2024-01-30T06:06:04;102399.75;;;21.12;39.44
84904;BME280;75168;52.096;5.214;2024-01-30T06:08:29;102408.63;;;21.13;39.29
84904;BME280;75168;52.096;5.214;2024-01-30T06:10:55;102400.66;;;21.11;39.36
84904;BME280;75168;52.096;5.214;2024-01-30T06:13:20;102402.41;;;21.12;39.47
84904;BME280;75168;52.096;5.214;2024-01-30T06:15:45;102402.41;;;21.12;39.21
84904;BME280;75168;52.096;5.214;2024-01-30T06:18:11;102401.53;;;21.11;39.39
84904;BME280;75168;52.096;5.214;2024-01-30T06:20:36;102397.09;;;21.12;39.55
84904;BME280;75168;52.096;5.214;2024-01-30T06:23:02;102400.66;;;21.13;39.38
84904;BME280;75168;52.096;5.214;2024-01-30T06:25:27;102396.22;;;21.11;39.39
84904;BME280;75168;52.096;5.214;2024-01-30T06:27:52;102391.78;;;21.12;39.45
84904;BME280;75168;52.096;5.214;2024-01-30T06:30:18;102404.19;;;21.13;39.55
84904;BME280;75168;52.096;5.214;2024-01-30T06:32:43;102401.53;;;21.11;39.19
84904;BME280;75168;52.096;5.214;2024-01-30T06:35:09;102413.00;;;21.12;39.22
84904;BME280;75168;52.096;5.214;2024-01-30T06:37:36;102412.13;;;21.13;39.41
84904;BME280;75168;52.096;5.214;2024-01-30T06:40:01;102405.94;;;21.14;39.59
84904;BME280;75168;52.096;5.214;2024-01-30T06:42:27;102398.88;;;21.13;39.46
84904;BME280;75168;52.096;5.214;2024-01-30T06:44:52;102406.84;;;21.13;39.58
84904;BME280;75168;52.096;5.214;2024-01-30T06:47:18;102406.84;;;21.13;39.51
84904;BME280;75168;52.096;5.214;2024-01-30T06:49:43;102418.31;;;21.12;39.40
84904;BME280;75168;52.096;5.214;2024-01-30T06:52:09;102412.13;;;21.13;39.41
84904;BME280;75168;52.096;5.214;2024-01-30T06:54:34;102416.56;;;21.13;39.40
84904;BME280;75168;52.096;5.214;2024-01-30T06:57:00;102415.66;;;21.14;39.42
84904;BME280;75168;52.096;5.214;2024-01-30T06:59:25;102420.09;;;21.13;39.26
84904;BME280;75168;52.096;5.214;2024-01-30T07:01:50;102422.75;;;21.13;39.21
84904;BME280;75168;52.096;5.214;2024-01-30T07:04:16;102426.28;;;21.14;39.33
84904;BME280;75168;52.096;5.214;2024-01-30T07:06:42;102436.88;;;21.14;39.11
84904;BME280;75168;52.096;5.214;2024-01-30T07:09:08;102439.53;;;21.14;39.37
84904;BME280;75168;52.096;5.214;2024-01-30T07:11:36;102429.84;;;21.06;39.35
84904;BME280;75168;52.096;5.214;2024-01-30T07:14:01;102438.69;;;21.08;39.60
84904;BME280;75168;52.096;5.214;2024-01-30T07:16:30;102445.75;;;21.11;39.60
84904;BME280;75168;52.096;5.214;2024-01-30T07:18:55;102443.09;;;21.11;39.58
84904;BME280;75168;52.096;5.214;2024-01-30T07:21:22;102452.81;;;21.12;39.25
84904;BME280;75168;52.096;5.214;2024-01-30T07:23:53;102453.72;;;21.13;39.35
84904;BME280;75168;52.096;5.214;2024-01-30T07:26:18;102455.47;;;21.12;39.28
84904;BME280;75168;52.096;5.214;2024-01-30T07:28:44;102462.56;;;21.13;39.24
84904;BME280;75168;52.096;5.214;2024-01-30T07:31:09;102468.72;;;21.14;39.28
84904;BME280;75168;52.096;5.214;2024-01-30T07:33:34;102466.97;;;21.13;39.55
84904;BME280;75168;52.096;5.214;2024-01-30T07:36:01;102470.50;;;21.13;39.57
84904;BME280;75168;52.096;5.214;2024-01-30T07:38:26;102472.28;;;21.13;39.24
84904;BME280;75168;52.096;5.214;2024-01-30T07:40:52;102462.56;;;21.13;39.11
84904;BME280;75168;52.096;5.214;2024-01-30T07:43:17;102464.31;;;21.14;39.25
84904;BME280;75168;52.096;5.214;2024-01-30T07:45:42;102468.72;;;21.14;39.47
84904;BME280;75168;52.096;5.214;2024-01-30T07:48:08;102468.72;;;21.14;39.19
84904;BME280;75168;52.096;5.214;2024-01-30T07:50:33;102466.97;;;21.14;39.44
84904;BME280;75168;52.096;5.214;2024-01-30T07:53:00;102463.41;;;21.14;39.20
84904;BME280;75168;52.096;5.214;2024-01-30T07:55:25;102469.63;;;21.14;39.59
84904;BME280;75168;52.096;5.214;2024-01-30T07:57:54;102465.19;;;21.15;39.26
84904;BME280;75168;52.096;5.214;2024-01-30T08:00:20;102482.00;;;21.15;39.58
84904;BME280;75168;52.096;5.214;2024-01-30T08:02:46;102476.69;;;21.15;39.52
84904;BME280;75168;52.096;5.214;2024-01-30T08:05:11;102486.44;;;21.15;39.53
84904;BME280;75168;52.096;5.214;2024-01-30T08:07:37;102489.94;;;21.15;39.26
84904;BME280;75168;52.096;5.214;2024-01-30T08:10:03;102495.25;;;21.15;39.18
84904;BME280;75168;52.096;5.214;2024-01-30T08:12:29;102492.59;;;21.15;39.32
84904;BME280;75168;52.096;5.214;2024-01-30T08:14:54;102488.16;;;21.16;39.39
84904;BME280;75168;52.096;5.214;2024-01-30T08:17:19;102494.38;;;21.15;39.20
84904;BME280;75168;52.096;5.214;2024-01-30T08:19:45;102487.28;;;21.15;39.29
84904;BME280;75168;52.096;5.214;2024-01-30T08:22:11;102490.81;;;21.16;39.29
84904;BME280;75168;52.096;5.214;2024-01-30T08:24:37;102489.94;;;21.15;39.51
84904;BME280;75168;52.096;5.214;2024-01-30T08:27:02;102490.81;;;21.16;39.33
84904;BME280;75168;52.096;5.214;2024-01-30T08:29:28;102500.56;;;21.17;39.25
84904;BME280;75168;52.096;5.214;2024-01-30T08:31:53;102489.06;;;21.16;39.31
84904;BME280;75168;52.096;5.214;2024-01-30T08:34:20;102494.38;;;21.16;39.20
84904;BME280;75168;52.096;5.214;2024-01-30T08:36:46;102494.38;;;21.16;39.49
84904;BME280;75168;52.096;5.214;2024-01-30T08:39:11;102491.72;;;21.16;39.39
84904;BME280;75168;52.096;5.214;2024-01-30T08:41:37;102497.03;;;21.18;39.43
84904;BME280;75168;52.096;5.214;2024-01-30T08:44:02;102492.59;;;21.17;39.16
84904;BME280;75168;52.096;5.214;2024-01-30T08:46:29;102490.81;;;21.17;39.17
84904;BME280;75168;52.096;5.214;2024-01-30T08:48:55;102499.69;;;21.18;39.53
84904;BME280;75168;52.096;5.214;2024-01-30T08:51:21;102497.03;;;21.18;39.43
84904;BME280;75168;52.096;5.214;2024-01-30T08:53:46;102498.78;;;21.17;39.46
84904;BME280;75168;52.096;5.214;2024-01-30T08:56:11;102490.81;;;21.19;39.41
84904;BME280;75168;52.096;5.214;2024-01-30T08:58:37;102489.03;;;21.19;39.58
84904;BME280;75168;52.096;5.214;2024-01-30T09:01:02;102498.78;;;21.19;39.54
84904;BME280;75168;52.096;5.214;2024-01-30T09:03:30;102493.47;;;21.19;39.49
84904;BME280;75168;52.096;5.214;2024-01-30T09:05:56;102500.56;;;21.20;39.34
84904;BME280;75168;52.096;5.214;2024-01-30T09:08:21;102497.91;;;21.21;39.50
84904;BME280;75168;52.096;5.214;2024-01-30T09:10:46;102495.25;;;21.21;39.36
84904;BME280;75168;52.096;5.214;2024-01-30T09:13:12;102502.28;;;21.22;39.68
84904;BME280;75168;52.096;5.214;2024-01-30T09:15:37;102496.09;;;21.23;39.43
84904;BME280;75168;52.096;5.214;2024-01-30T09:18:02;102498.75;;;21.23;39.40
84904;BME280;75168;52.096;5.214;2024-01-30T09:20:28;102497.84;;;21.24;39.58
84904;BME280;75168;52.096;5.214;2024-01-30T09:22:53;102505.81;;;21.24;39.41
84904;BME280;75168;52.096;5.214;2024-01-30T09:25:19;102502.28;;;21.24;39.48
84904;BME280;75168;52.096;5.214;2024-01-30T09:27:44;102509.38;;;21.25;39.46
84904;BME280;75168;52.096;5.214;2024-01-30T09:30:10;102506.72;;;21.25;39.31
84904;BME280;75168;52.096;5.214;2024-01-30T09:32:35;102513.78;;;21.26;39.39
84904;BME280;75168;52.096;5.214;2024-01-30T09:35:00;102516.44;;;21.26;39.33
84904;BME280;75168;52.096;5.214;2024-01-30T09:37:26;102526.16;;;21.25;39.71
84904;BME280;75168;52.096;5.214;2024-01-30T09:39:51;102530.59;;;21.25;39.27
84904;BME280;75168;52.096;5.214;2024-01-30T09:42:27;102527.94;;;21.25;39.44
84904;BME280;75168;52.096;5.214;2024-01-30T09:44:53;102530.59;;;21.25;39.41
84904;BME280;75168;52.096;5.214;2024-01-30T09:47:19;102520.84;;;21.25;39.57
84904;BME280;75168;52.096;5.214;2024-01-30T09:49:45;102521.72;;;21.26;39.37
84904;BME280;75168;52.096;5.214;2024-01-30T09:52:11;102522.63;;;21.25;39.35
84904;BME280;75168;52.096;5.214;2024-01-30T09:54:38;102522.63;;;21.25;39.18
84904;BME280;75168;52.096;5.214;2024-01-30T09:57:04;102526.16;;;21.25;39.33
84904;BME280;75168;52.096;5.214;2024-01-30T09:59:30;102532.34;;;21.26;39.64
84904;BME280;75168;52.096;5.214;2024-01-30T10:01:56;102526.16;;;21.25;39.22
84904;BME280;75168;52.096;5.214;2024-01-30T10:04:22;102529.69;;;21.26;39.41
84904;BME280;75168;52.096;5.214;2024-01-30T10:06:47;102528.81;;;21.25;39.29
84904;BME280;75168;52.096;5.214;2024-01-30T10:09:12;102530.56;;;21.26;39.63
84904;BME280;75168;52.096;5.214;2024-01-30T10:11:38;102523.50;;;21.27;39.39
84904;BME280;75168;52.096;5.214;2024-01-30T10:14:04;102524.38;;;21.26;39.35
84904;BME280;75168;52.096;5.214;2024-01-30T10:16:29;102535.88;;;21.26;39.64
84904;BME280;75168;52.096;5.214;2024-01-30T10:18:55;102535.00;;;21.26;39.69
84904;BME280;75168;52.096;5.214;2024-01-30T10:21:21;102530.59;;;21.25;39.51
84904;BME280;75168;52.096;5.214;2024-01-30T10:23:46;102538.53;;;21.26;39.32
84904;BME280;75168;52.096;5.214;2024-01-30T10:26:11;102528.81;;;21.25;39.69
84904;BME280;75168;52.096;5.214;2024-01-30T10:28:37;102527.03;;;21.26;39.26
84904;BME280;75168;52.096;5.214;2024-01-30T10:31:02;102544.75;;;21.27;39.47
84904;BME280;75168;52.096;5.214;2024-01-30T10:33:31;102534.13;;;21.27;39.38
84904;BME280;75168;52.096;5.214;2024-01-30T10:36:05;102545.63;;;21.26;39.32
84904;BME280;75168;52.096;5.214;2024-01-30T10:38:32;102555.34;;;21.27;39.57
84904;BME280;75168;52.096;5.214;2024-01-30T10:41:01;102552.69;;;21.27;39.64
84904;BME280;75168;52.096;5.214;2024-01-30T10:43:40;102546.50;;;21.26;39.32
84904;BME280;75168;52.096;5.214;2024-01-30T10:46:20;102551.78;;;21.26;39.40
84904;BME280;75168;52.096;5.214;2024-01-30T10:48:58;102542.97;;;21.24;39.54
84904;BME280;75168;52.096;5.214;2024-01-30T10:51:27;102551.84;;;21.25;39.55
84904;BME280;75168;52.096;5.214;2024-01-30T10:53:53;102548.28;;;21.26;39.64
84904;BME280;75168;52.096;5.214;2024-01-30T10:56:23;102544.75;;;21.27;39.33
84904;BME280;75168;52.096;5.214;2024-01-30T10:58:52;102547.41;;;21.27;39.35
84904;BME280;75168;52.096;5.214;2024-01-30T11:01:22;102551.78;;;21.28;39.65
84904;BME280;75168;52.096;5.214;2024-01-30T11:03:57;102554.44;;;21.26;39.22
84904;BME280;75168;52.096;5.214;2024-01-30T11:06:25;102535.00;;;21.26;39.46
84904;BME280;75168;52.096;5.214;2024-01-30T11:09:04;102534.13;;;21.27;39.33
84904;BME280;75168;52.096;5.214;2024-01-30T11:11:57;102548.28;;;21.26;39.26
84904;BME280;75168;52.096;5.214;2024-01-30T11:14:29;102537.66;;;21.26;39.39
84904;BME280;75168;52.096;5.214;2024-01-30T11:16:58;102538.53;;;21.26;39.39
84904;BME280;75168;52.096;5.214;2024-01-30T11:19:25;102548.28;;;21.27;39.65
84904;BME280;75168;52.096;5.214;2024-01-30T11:21:52;102545.63;;;21.27;39.51
84904;BME280;75168;52.096;5.214;2024-01-30T11:24:20;102540.31;;;21.27;39.25
84904;BME280;75168;52.096;5.214;2024-01-30T11:26:49;102550.03;;;21.28;39.24
84904;BME280;75168;52.096;5.214;2024-01-30T11:29:17;102549.13;;;21.28;39.63
84904;BME280;75168;52.096;5.214;2024-01-30T11:31:52;102547.38;;;21.28;39.64
84904;BME280;75168;52.096;5.214;2024-01-30T11:34:18;102546.50;;;21.28;39.60
84904;BME280;75168;52.096;5.214;2024-01-30T11:36:48;102534.13;;;21.28;39.54
84904;BME280;75168;52.096;5.214;2024-01-30T11:39:19;102541.19;;;21.29;39.39
84904;BME280;75168;52.096;5.214;2024-01-30T11:41:45;102535.88;;;21.29;39.50
84904;BME280;75168;52.096;5.214;2024-01-30T11:44:11;102529.69;;;21.29;39.64
84904;BME280;75168;52.096;5.214;2024-01-30T11:46:36;102537.66;;;21.29;39.57
84904;BME280;75168;52.096;5.214;2024-01-30T11:49:02;102530.56;;;21.29;39.64
84904;BME280;75168;52.096;5.214;2024-01-30T11:51:28;102532.34;;;21.29;39.64
84904;BME280;75168;52.096;5.214;2024-01-30T11:53:57;102535.88;;;21.29;39.29
84904;BME280;75168;52.096;5.214;2024-01-30T11:56:23;102544.69;;;21.30;39.55
84904;BME280;75168;52.096;5.214;2024-01-30T11:58:49;102534.09;;;21.30;39.76
84904;BME280;75168;52.096;5.214;2024-01-30T12:01:16;102539.38;;;21.32;39.36
84904;BME280;75168;52.096;5.214;2024-01-30T12:03:42;102544.69;;;21.32;39.31
84904;BME280;75168;52.096;5.214;2024-01-30T12:06:08;102537.66;;;21.32;39.41
84904;BME280;75168;52.096;5.214;2024-01-30T12:08:33;102542.03;;;21.32;39.67
84904;BME280;75168;52.096;5.214;2024-01-30T12:10:59;102545.59;;;21.32;39.28
84904;BME280;75168;52.096;5.214;2024-01-30T12:13:28;102542.03;;;21.33;39.55
84904;BME280;75168;52.096;5.214;2024-01-30T12:15:54;102550.00;;;21.33;39.71
84904;BME280;75168;52.096;5.214;2024-01-30T12:18:20;102545.56;;;21.34;39.73
84904;BME280;75168;52.096;5.214;2024-01-30T12:20:45;102551.78;;;21.34;39.36
84904;BME280;75168;52.096;5.214;2024-01-30T12:23:12;102546.47;;;21.34;39.37
84904;BME280;75168;52.096;5.214;2024-01-30T12:25:38;102541.16;;;21.34;39.81
84904;BME280;75168;52.096;5.214;2024-01-30T12:28:03;102542.03;;;21.35;39.58
84904;BME280;75168;52.096;5.214;2024-01-30T12:30:29;102545.56;;;21.35;39.56
84904;BME280;75168;52.096;5.214;2024-01-30T12:32:55;102560.63;;;21.35;39.38
84904;BME280;75168;52.096;5.214;2024-01-30T12:35:20;102554.44;;;21.36;39.43
84904;BME280;75168;52.096;5.214;2024-01-30T12:37:47;102560.63;;;21.35;39.62
84904;BME280;75168;52.096;5.214;2024-01-30T12:40:16;102563.25;;;21.36;39.45
84904;BME280;75168;52.096;5.214;2024-01-30T12:42:42;102571.22;;;21.36;39.43
84904;BME280;75168;52.096;5.214;2024-01-30T12:45:08;102570.34;;;21.36;39.56